Aérodrome :
LOGIN :

S'inscrire | Disclaimer

   EN    FR    IT 

 










Légende :    VFR   VFR Marginal   IFR   IFR Intensif   IFR Très Intensif
Visi : 
Plafond : 
>= 8 km
>= 3000ft
5 à 8 km
1000 à 3000 ft
1500m à 5 km
500 à 1000 ft
800 à 1500m
200 à 500 ft
< 800m
< 200 ft
Symboles :   Orages  Brouillard  Fortes neiges  Fortes précipitations  Vent > 20 kt
SIGMETs :   Divers  Orages  Givrage  Turbulence  Onde Orograph.  Cendres Volcan.






- Altitude de l'aérodrome : 5600 ft
- Code IATA : SMV


LSZS - Samedan

DERNIER METAR :
  • 221250Z 22005KT 160V330 7000 -SN BKN026 BKN043 02/M02 Q1008 R03/19//// RMK M

METARs EXPIRÉS :
  • 221220Z 21008KT 140V250 7000 -SN BKN026 BKN043 02/M01 Q1008 R03/19//// RMK L
  • 221150Z VRB04KT 5000 -SN BKN026 BKN043 01/M01 Q1009 R03/19//// RMK K
  • 221120Z 02003KT 350V070 5000 -SN BKN026 BKN050 M00/M02 Q1009 R03/19//// RMK J
  • 221050Z 04003KT 8000 -SN BKN026 BKN050 M01/M02 Q1009 R03/19//// RMK I
  • 221020Z VRB03KT 8000 -SN BKN026 BKN050 M01/M03 Q1010 R03/19//// RMK H

TAF TAF LSZS
Valide du 22 à 12h jusqu'au 22 à 21h UTC


221125Z 2212/2221 VRB03KT 8000 SCT025 BKN030 TX01/2213Z
TEMPO 2212/2218 4500 -SN
PROB30 2215/2218 2500 SN BKN010
ATIS : +41 81 834 93 24



MET'MAP, la Météo Aéronautique d'un coup d'oeil ! - Copyright ORBIFLY Décembre 2007 - Disclaimer

ORBIFLY MET'MAP TEAM :

Programmation & Développement : Alexandra Zaïnal
Conception & Développement : Baudouin d'Aumeries
Co-Programmation & Développement : Marc-Olivier Méhu
Soutien technique & logistique : Manuel Goepfert

Contact : metmap@orbifly.com




SOURCES & CREDITS :

   NOAA